X  Close Metar Aviation Weather Data     ENGM Oslo Airport, Gardermoen
Temperature
1°C Temperature
-3°C Dewpoint
75% Humidity



Wind
1 M/S
2 MPH
3 KM/H
2 KTS



Calm
North
Current Conditions

Clear Clear
Pressure 1010.92 (hPa) - 29.85 (inHg)
Visibility 6.2 (mile) - 10 (km)
Airport
Airport-code ENGM

Location: Oslo Airport, Gardermoen
Distance: 6 (km)

Metar:
ENGM 170750Z VRB02KT CAVOK 01/M03 Q1011 NOSIG

Time: 17-10-2021 09:50 CEST